Time;durP1;ratioP1;P1;durP2;ratioP2;P2;SDS_P1;SDS_P2;PMS_P1;PMS_P2;Temp;Humidity;BMP_temperature;BMP_pressure;BME280_temperature;BME280_humidity;BME280_pressure;Samples;Min_cycle;Max_cycle;Signal;HPM_P1;HPM_P2
2023/01/07 05:02:25;;;;;;;6.70;5.03;;;9.30;99.90;;;;;;5133444;23;20506;-72
2023/01/07 05:04:51;;;;;;;6.60;5.53;;;9.30;99.90;;;;;;4989214;28;20512;-72
2023/01/07 05:07:18;;;;;;;7.77;4.73;;;9.30;99.90;;;;;;4988440;28;20448;-72
2023/01/07 05:09:45;;;;;;;7.23;4.97;;;9.30;99.90;;;;;;4988611;28;20461;-71
2023/01/07 05:12:12;;;;;;;6.20;5.20;;;9.30;99.90;;;;;;4988920;28;20468;-72
2023/01/07 05:14:38;;;;;;;5.90;4.40;;;9.40;99.90;;;;;;4988475;28;20927;-72
2023/01/07 05:17:05;;;;;;;5.30;4.43;;;9.30;99.90;;;;;;4987896;28;20877;-71
2023/01/07 05:19:33;;;;;;;5.73;4.10;;;9.40;99.90;;;;;;4988740;28;20456;-72
2023/01/07 05:22:00;;;;;;;4.70;4.20;;;9.40;99.90;;;;;;4988669;28;20474;-72
2023/01/07 05:24:27;;;;;;;7.57;4.90;;;9.40;99.90;;;;;;4988288;28;20499;-72
2023/01/07 05:26:54;;;;;;;6.97;4.03;;;9.40;99.90;;;;;;4987665;28;20458;-71
2023/01/07 05:29:20;;;;;;;8.20;4.20;;;9.40;99.90;;;;;;4988238;28;20467;-72
2023/01/07 05:31:47;;;;;;;9.53;4.07;;;9.40;99.90;;;;;;4988207;28;20563;-72
2023/01/07 05:34:14;;;;;;;6.43;4.83;;;9.40;99.90;;;;;;4988186;28;20462;-71
2023/01/07 05:36:42;;;;;;;7.57;4.90;;;9.40;99.90;;;;;;4987379;28;20463;-72
2023/01/07 05:39:09;;;;;;;5.93;4.50;;;9.40;99.90;;;;;;4988241;28;20451;-72
2023/01/07 05:41:36;;;;;;;4.63;4.17;;;9.40;99.90;;;;;;4988007;28;20479;-71
2023/01/07 05:44:02;;;;;;;6.50;3.90;;;9.40;99.90;;;;;;4987487;28;20491;-72
2023/01/07 05:46:29;;;;;;;6.30;4.90;;;9.40;99.90;;;;;;4987407;28;20451;-72
2023/01/07 05:48:56;;;;;;;7.20;4.37;;;9.40;99.90;;;;;;4987657;28;20451;-72
2023/01/07 05:51:23;;;;;;;5.90;4.17;;;9.40;99.90;;;;;;4987236;28;20476;-72
2023/01/07 05:53:51;;;;;;;5.10;3.80;;;9.50;99.90;;;;;;4987502;28;20454;-72
2023/01/07 05:56:18;;;;;;;5.30;3.53;;;9.40;99.90;;;;;;4987299;28;20478;-72
2023/01/07 05:58:44;;;;;;;8.20;3.77;;;9.40;99.90;;;;;;4988054;28;20459;-72
2023/01/07 06:01:11;;;;;;;6.93;4.03;;;9.40;99.90;;;;;;4987220;28;20491;-72
2023/01/07 06:03:38;;;;;;;4.37;3.70;;;9.40;99.90;;;;;;4987478;28;20463;-72
2023/01/07 06:06:06;;;;;;;4.10;3.43;;;9.40;99.90;;;;;;4987202;28;20495;-72
2023/01/07 06:08:33;;;;;;;5.43;3.77;;;9.40;99.90;;;;;;4987574;28;20452;-72
2023/01/07 06:11:01;;;;;;;4.00;3.60;;;9.40;99.90;;;;;;4986876;28;20988;-72
2023/01/07 06:13:28;;;;;;;5.33;3.57;;;9.40;99.90;;;;;;4987439;28;20452;-72
2023/01/07 06:15:59;;;;;;;15.80;5.20;;;9.40;99.90;;;;;;4987576;28;20452;-72
2023/01/07 06:18:26;;;;;;;8.80;5.73;;;9.40;99.90;;;;;;4987061;28;20454;-72
2023/01/07 06:20:53;;;;;;;6.90;4.80;;;9.40;99.90;;;;;;4987147;28;21013;-72
2023/01/07 06:23:20;;;;;;;5.53;3.93;;;9.40;99.90;;;;;;4987121;28;20466;-71
2023/01/07 06:25:46;;;;;;;6.10;3.77;;;9.40;99.90;;;;;;4987095;28;20491;-71
2023/01/07 06:28:14;;;;;;;5.67;4.50;;;9.40;99.90;;;;;;4986787;28;20455;-72
2023/01/07 06:30:41;;;;;;;5.50;4.13;;;9.40;99.90;;;;;;4987036;28;20479;-72
2023/01/07 06:33:08;;;;;;;5.23;4.07;;;9.40;99.90;;;;;;4987014;28;20924;-71
2023/01/07 06:35:35;;;;;;;8.27;4.10;;;9.40;99.90;;;;;;4986960;28;20994;-72
2023/01/07 06:38:01;;;;;;;4.27;3.33;;;9.40;99.90;;;;;;4986567;28;20457;-72
2023/01/07 06:40:28;;;;;;;5.80;4.10;;;9.40;99.90;;;;;;4986630;28;20459;-72
2023/01/07 06:42:55;;;;;;;6.23;3.90;;;9.50;99.90;;;;;;4987087;28;20455;-72
2023/01/07 06:45:24;;;;;;;5.73;3.80;;;9.40;99.90;;;;;;4986552;28;20490;-72
2023/01/07 06:47:51;;;;;;;3.97;3.40;;;9.40;99.90;;;;;;4986153;28;20971;-72
2023/01/07 06:50:18;;;;;;;7.83;4.73;;;9.50;99.90;;;;;;4986353;28;20459;-72
2023/01/07 06:52:44;;;;;;;5.93;4.53;;;9.50;99.90;;;;;;4986785;28;20466;-72
2023/01/07 06:55:11;;;;;;;7.13;5.77;;;9.50;99.90;;;;;;4987148;28;20456;-72
2023/01/07 06:57:38;;;;;;;6.90;6.20;;;9.50;99.90;;;;;;4985947;28;20454;-72
2023/01/07 07:00:05;;;;;;;6.80;6.07;;;9.50;99.90;;;;;;4986076;28;20451;-72
2023/01/07 07:02:34;;;;;;;6.93;5.53;;;9.50;99.90;;;;;;4986421;28;20495;-72
2023/01/07 07:05:00;;;;;;;5.60;4.80;;;9.50;99.90;;;;;;4986546;28;20501;-72
2023/01/07 07:07:27;;;;;;;7.47;5.10;;;9.50;99.90;;;;;;4985879;28;20881;-72
2023/01/07 07:09:54;;;;;;;5.17;4.20;;;9.50;99.90;;;;;;4986592;28;20455;-72
2023/01/07 07:12:21;;;;;;;5.40;4.43;;;9.50;99.90;;;;;;4986210;28;20482;-72
2023/01/07 07:14:47;;;;;;;5.13;4.33;;;9.50;99.90;;;;;;4986017;28;20463;-72
2023/01/07 07:17:14;;;;;;;5.83;3.33;;;9.50;99.90;;;;;;4985562;28;20751;-72
2023/01/07 07:19:43;;;;;;;5.23;4.73;;;9.50;99.90;;;;;;4986318;28;20889;-70
2023/01/07 07:22:09;;;;;;;8.30;4.40;;;9.50;99.90;;;;;;4985961;28;20471;-70
2023/01/07 07:24:36;;;;;;;4.63;4.13;;;9.50;99.90;;;;;;4986094;28;20509;-72
2023/01/07 07:27:03;;;;;;;4.60;4.10;;;9.40;99.90;;;;;;4985366;28;20463;-72
2023/01/07 07:29:30;;;;;;;5.00;3.83;;;9.50;99.90;;;;;;4986219;28;20867;-71
2023/01/07 07:31:57;;;;;;;4.90;3.77;;;9.50;99.90;;;;;;4985727;28;20987;-72
2023/01/07 07:34:23;;;;;;;4.20;3.80;;;9.50;99.90;;;;;;4985828;28;20455;-72
2023/01/07 07:36:52;;;;;;;3.63;3.27;;;9.40;99.90;;;;;;4985529;28;20542;-70
2023/01/07 07:39:18;;;;;;;3.80;3.50;;;9.40;99.90;;;;;;4985792;28;20459;-70
2023/01/07 07:41:45;;;;;;;3.20;2.77;;;9.40;99.90;;;;;;4985483;28;20554;-72
2023/01/07 07:44:12;;;;;;;3.37;3.00;;;9.40;99.90;;;;;;4985846;28;20754;-71
2023/01/07 07:46:39;;;;;;;4.27;2.80;;;9.40;99.90;;;;;;4985259;28;20496;-72
2023/01/07 07:49:05;;;;;;;3.20;2.93;;;9.40;99.90;;;;;;4985438;28;20967;-72
2023/01/07 07:51:32;;;;;;;2.80;2.60;;;9.40;99.90;;;;;;4985525;28;20475;-71
2023/01/07 07:54:01;;;;;;;3.13;2.83;;;9.40;99.90;;;;;;4985916;28;20459;-72
2023/01/07 07:56:27;;;;;;;3.22;2.70;;;9.40;99.90;;;;;;4984311;28;20444;-72
2023/01/07 07:58:54;;;;;;;3.47;3.17;;;9.50;99.90;;;;;;4985747;28;20220;-72
2023/01/07 08:01:21;;;;;;;2.93;2.70;;;9.50;99.90;;;;;;4985333;28;20494;-72
2023/01/07 08:03:48;;;;;;;12.23;2.80;;;9.50;99.90;;;;;;4985533;28;20971;-70
2023/01/07 08:06:15;;;;;;;3.67;2.83;;;9.50;99.90;;;;;;4985103;28;20501;-72
2023/01/07 08:08:42;;;;;;;3.20;2.90;;;9.50;99.90;;;;;;4985677;28;20459;-72
2023/01/07 08:11:10;;;;;;;3.10;2.73;;;9.40;99.90;;;;;;4985525;28;20479;-70
2023/01/07 08:13:37;;;;;;;4.20;3.57;;;9.40;99.90;;;;;;4985882;28;20459;-70
2023/01/07 08:16:04;;;;;;;3.80;3.30;;;9.40;99.90;;;;;;4985189;28;20478;-72
2023/01/07 08:18:31;;;;;;;3.20;2.80;;;9.40;99.90;;;;;;4985297;28;20458;-72
2023/01/07 08:20:57;;;;;;;3.10;2.80;;;9.40;99.90;;;;;;4985394;28;20647;-69
2023/01/07 08:23:26;;;;;;;2.80;2.50;;;9.30;99.90;;;;;;4985163;28;20452;-71
2023/01/07 08:25:53;;;;;;;2.73;2.50;;;9.30;99.90;;;;;;4985228;28;20495;-71
2023/01/07 08:28:21;;;;;;;2.50;2.30;;;9.30;99.90;;;;;;4985015;28;20948;-71
2023/01/07 08:30:48;;;;;;;2.90;2.43;;;9.30;99.90;;;;;;4985426;28;20472;-72
2023/01/07 08:33:15;;;;;;;2.60;2.40;;;9.30;99.90;;;;;;4985192;28;20467;-68
2023/01/07 08:35:42;;;;;;;2.63;2.40;;;9.30;99.90;;;;;;4988729;28;20855;-72
2023/01/07 08:38:09;;;;;;;3.10;2.77;;;9.30;99.90;;;;;;4988546;28;20455;-72
2023/01/07 08:40:37;;;;;;;2.97;2.67;;;9.30;99.90;;;;;;4989008;28;20559;-71
2023/01/07 08:43:05;;;;;;;5.60;3.10;;;9.30;99.90;;;;;;4989142;28;20459;-72
2023/01/07 08:45:34;;;;;;;4.90;2.50;;;9.30;99.90;;;;;;4989306;28;20482;-71
2023/01/07 08:48:00;;;;;;;4.40;2.73;;;9.20;99.90;;;;;;4988761;28;20458;-71
2023/01/07 08:50:28;;;;;;;2.30;2.10;;;9.20;99.90;;;;;;4988609;28;20462;-72
2023/01/07 08:52:56;;;;;;;2.87;2.47;;;9.30;99.90;;;;;;4988589;28;20848;-71
2023/01/07 08:55:22;;;;;;;2.80;2.60;;;9.20;99.90;;;;;;4988861;28;20452;-72
2023/01/07 08:57:50;;;;;;;3.90;2.77;;;9.30;99.90;;;;;;4988854;28;20464;-72
2023/01/07 09:00:19;;;;;;;3.13;2.40;;;9.30;99.90;;;;;;4988787;28;20487;-72
2023/01/07 09:02:48;;;;;;;2.97;2.50;;;9.30;99.90;;;;;;4987294;28;20447;-72
2023/01/07 09:05:14;;;;;;;2.63;2.30;;;9.30;99.90;;;;;;4988497;28;20595;-72
2023/01/07 09:07:42;;;;;;;3.00;2.20;;;9.30;99.90;;;;;;4988342;28;20451;-71
2023/01/07 09:10:11;;;;;;;2.60;2.40;;;9.40;99.90;;;;;;4988683;28;20455;-72
2023/01/07 09:12:37;;;;;;;3.30;2.60;;;9.40;99.90;;;;;;4989049;28;20471;-72
2023/01/07 09:15:05;;;;;;;3.50;3.20;;;9.40;99.90;;;;;;4988095;28;20455;-71
2023/01/07 09:17:32;;;;;;;3.10;2.80;;;9.40;99.90;;;;;;4987265;28;20466;-69
2023/01/07 09:20:02;;;;;;;3.70;3.20;;;9.40;99.90;;;;;;4988711;28;20455;-72
2023/01/07 09:22:29;;;;;;;3.70;3.13;;;9.50;99.90;;;;;;4988559;28;20475;-72
2023/01/07 09:24:56;;;;;;;2.90;2.60;;;9.50;99.90;;;;;;4988127;28;20455;-72
2023/01/07 09:27:25;;;;;;;4.87;3.53;;;9.50;99.90;;;;;;4987387;28;20952;-72
2023/01/07 09:29:52;;;;;;;4.20;3.60;;;9.60;99.90;;;;;;4987868;28;20874;-72
2023/01/07 09:32:19;;;;;;;3.63;3.17;;;9.60;99.90;;;;;;4988150;28;20483;-69
2023/01/07 09:34:45;;;;;;;3.57;2.90;;;9.60;99.90;;;;;;4988114;28;20995;-72
2023/01/07 09:37:13;;;;;;;3.30;3.00;;;9.60;99.90;;;;;;4987601;28;20444;-71
2023/01/07 09:39:40;;;;;;;4.83;3.10;;;9.60;99.90;;;;;;4988024;28;20452;-71
2023/01/07 09:42:15;;;;;;;2.90;2.63;;;9.50;99.90;;;;;;4987877;28;20571;-72
2023/01/07 09:44:53;;;;;;;2.97;2.67;;;9.60;99.90;;;;;;4987328;28;20449;-70
2023/01/07 09:47:24;;;;;;;4.40;2.93;;;9.60;99.90;;;;;;4987153;28;20483;-72
2023/01/07 09:49:56;;;;;;;3.17;2.53;;;9.60;99.90;;;;;;4987973;28;20498;-72
2023/01/07 09:52:30;;;;;;;2.80;2.50;;;9.60;99.90;;;;;;4987530;28;20488;-72
2023/01/07 09:55:05;;;;;;;3.10;2.30;;;9.70;99.90;;;;;;4987431;28;20452;-72
2023/01/07 09:57:32;;;;;;;2.50;2.30;;;9.70;99.90;;;;;;4987061;28;20999;-71
2023/01/07 09:59:59;;;;;;;2.60;2.30;;;9.70;99.90;;;;;;4988016;28;20466;-72
2023/01/07 10:02:39;;;;;;;4.17;3.43;;;9.70;99.90;;;;;;4987183;28;20482;-72
2023/01/07 10:05:20;;;;;;;3.03;2.40;;;9.80;99.90;;;;;;4987442;28;20456;-72
2023/01/07 10:07:57;;;;;;;3.30;2.40;;;9.80;99.90;;;;;;4987003;28;20953;-71
2023/01/07 10:10:31;;;;;;;5.83;2.87;;;9.90;99.90;;;;;;4987480;28;20431;-72
2023/01/07 10:13:11;;;;;;;2.60;2.40;;;9.90;99.90;;;;;;4987680;28;20465;-72
2023/01/07 10:15:51;;;;;;;3.20;2.90;;;10.00;99.90;;;;;;4987653;28;20432;-71
2023/01/07 10:18:34;;;;;;;3.10;2.80;;;10.00;99.90;;;;;;4987203;28;20635;-72
2023/01/07 10:21:12;;;;;;;3.17;2.57;;;10.00;99.90;;;;;;4987590;28;20486;-71
2023/01/07 10:23:43;;;;;;;4.60;2.97;;;10.10;99.90;;;;;;4987292;28;20436;-71
2023/01/07 10:26:18;;;;;;;3.10;2.80;;;10.10;99.90;;;;;;4986694;28;21081;-71
2023/01/07 10:28:49;;;;;;;3.30;2.93;;;10.10;99.90;;;;;;4986799;28;20443;-69
2023/01/07 10:31:19;;;;;;;2.87;2.57;;;10.20;99.90;;;;;;4986875;28;21026;-71
2023/01/07 10:33:48;;;;;;;3.13;2.73;;;10.20;99.90;;;;;;4986412;28;20652;-72
2023/01/07 10:36:22;;;;;;;3.10;2.80;;;10.30;99.90;;;;;;4986153;28;20448;-71
2023/01/07 10:38:56;;;;;;;7.53;3.07;;;10.40;99.90;;;;;;4986742;28;20541;-71
2023/01/07 10:41:31;;;;;;;4.40;3.47;;;10.40;99.90;;;;;;4986645;28;20990;-71
2023/01/07 10:44:18;;;;;;;5.47;3.53;;;10.60;99.90;;;;;;4987258;28;20460;-71
2023/01/07 10:46:54;;;;;;;4.83;3.90;;;10.70;99.90;;;;;;4986655;28;20483;-72
2023/01/07 10:49:41;;;;;;;5.00;3.27;;;10.90;99.90;;;;;;4986263;28;20967;-71
2023/01/07 10:52:29;;;;;;;3.60;3.10;;;11.20;99.90;;;;;;4986692;28;20489;-72
2023/01/07 10:55:10;;;;;;;3.80;3.40;;;11.30;99.90;;;;;;4986734;28;20512;-72
2023/01/07 10:57:37;;;;;;;6.27;4.03;;;11.30;99.90;;;;;;4984853;28;20438;-71
2023/01/07 11:00:10;;;;;;;5.50;4.33;;;11.30;99.90;;;;;;4986348;28;20455;-70
2023/01/07 11:02:38;;;;;;;4.43;3.53;;;11.20;99.90;;;;;;4986675;28;20858;-72
2023/01/07 11:05:06;;;;;;;4.67;3.80;;;11.30;99.90;;;;;;4986596;28;20463;-72
2023/01/07 11:07:42;;;;;;;4.33;3.70;;;11.40;99.90;;;;;;4986179;28;20966;-72
2023/01/07 11:10:15;;;;;;;4.90;3.93;;;11.40;99.90;;;;;;4986127;28;20923;-72
2023/01/07 11:12:46;;;;;;;4.73;3.90;;;11.40;99.90;;;;;;4986367;28;20436;-72
2023/01/07 11:15:19;;;;;;;5.20;4.07;;;11.40;99.90;;;;;;4986176;28;20880;-72
2023/01/07 11:17:49;;;;;;;4.60;4.03;;;11.50;99.90;;;;;;4985744;28;20448;-72
2023/01/07 11:20:44;;;;;;;4.90;4.40;;;11.50;99.90;;;;;;4986053;28;20451;-71
2023/01/07 11:23:34;;;;;;;4.50;3.93;;;11.60;99.90;;;;;;4986257;28;20443;-71
2023/01/07 11:26:12;;;;;;;4.93;4.10;;;11.60;99.90;;;;;;4985789;28;20484;-72
2023/01/07 11:28:43;;;;;;;5.57;4.67;;;11.70;99.90;;;;;;4986032;28;20812;-72
2023/01/07 11:31:10;;;;;;;5.40;4.17;;;11.70;99.90;;;;;;4986200;28;20476;-71
2023/01/07 11:33:41;;;;;;;5.53;4.17;;;11.70;99.90;;;;;;4986227;28;20460;-71
2023/01/07 11:36:08;;;;;;;5.40;4.00;;;11.90;99.90;;;;;;4985160;28;20428;-71
2023/01/07 11:38:38;;;;;;;6.20;4.60;;;11.80;99.90;;;;;;4985761;28;20466;-72
2023/01/07 11:41:19;;;;;;;6.47;4.73;;;11.80;99.90;;;;;;4985597;28;21003;-72
2023/01/07 11:43:49;;;;;;;5.20;4.30;;;12.10;99.90;;;;;;4986100;28;20439;-72
2023/01/07 11:46:16;;;;;;;6.23;4.60;;;12.40;99.90;;;;;;4985296;28;20506;-72
2023/01/07 11:48:51;;;;;;;5.33;4.40;;;12.70;99.90;;;;;;4985640;28;20806;-72
2023/01/07 11:51:19;;;;;;;6.47;4.40;;;12.90;99.90;;;;;;4985992;28;20478;-72
2023/01/07 11:53:51;;;;;;;6.17;4.87;;;13.00;99.90;;;;;;4985625;28;20547;-72
2023/01/07 11:56:26;;;;;;;5.17;4.47;;;12.70;99.90;;;;;;4985480;28;20447;-72
2023/01/07 11:59:15;;;;;;;6.03;4.70;;;12.90;99.90;;;;;;4985735;28;20454;-72
2023/01/07 12:01:43;;;;;;;5.27;4.43;;;13.00;99.90;;;;;;4985467;28;20480;-72
2023/01/07 12:04:20;;;;;;;4.93;4.43;;;13.30;99.90;;;;;;4985551;28;20452;-72
2023/01/07 12:06:51;;;;;;;5.00;4.00;;;13.50;99.90;;;;;;4985036;28;20585;-71
2023/01/07 12:09:27;;;;;;;4.67;4.17;;;13.60;99.90;;;;;;4988526;28;20451;-71
2023/01/07 12:11:59;;;;;;;5.60;3.80;;;13.80;99.90;;;;;;4989715;28;20602;-71
2023/01/07 12:14:28;;;;;;;6.40;4.20;;;14.10;99.90;;;;;;4989675;28;20450;-71
2023/01/07 12:16:56;;;;;;;4.17;3.77;;;14.20;99.90;;;;;;4989240;28;20451;-72
2023/01/07 12:19:54;;;;;;;4.17;3.77;;;14.40;99.90;;;;;;4989276;28;20948;-72
2023/01/07 12:22:33;;;;;;;4.53;3.53;;;14.40;99.90;;;;;;4989186;28;20690;-71
2023/01/07 12:25:22;;;;;;;5.20;4.43;;;14.10;99.90;;;;;;4989134;28;20466;-71
2023/01/07 12:27:59;;;;;;;5.20;4.07;;;14.30;99.90;;;;;;4988670;28;20502;-71
2023/01/07 12:31:04;;;;;;;4.60;3.60;;;14.60;99.90;;;;;;4989222;28;20439;-71
2023/01/07 12:33:57;;;;;;;5.30;3.43;;;14.70;99.90;;;;;;4989022;28;20451;-72
2023/01/07 12:36:35;;;;;;;4.80;4.20;;;14.80;99.90;;;;;;4988506;28;20968;-71
2023/01/07 12:39:07;;;;;;;4.10;3.53;;;15.00;99.90;;;;;;4989330;28;20454;-72
2023/01/07 12:41:39;;;;;;;5.00;3.50;;;15.10;99.90;;;;;;4988976;28;20475;-71
2023/01/07 12:44:13;;;;;;;6.30;3.70;;;15.10;99.90;;;;;;4989303;28;20435;-71
2023/01/07 12:46:43;;;;;;;5.60;3.20;;;15.10;99.90;;;;;;4988433;28;20494;-72
2023/01/07 12:49:16;;;;;;;4.17;3.40;;;15.20;99.90;;;;;;4988722;28;20467;-71
2023/01/07 12:51:48;;;;;;;5.10;3.47;;;15.40;99.90;;;;;;4989190;28;21025;-71
2023/01/07 12:54:18;;;;;;;4.30;3.50;;;15.30;99.90;;;;;;4988608;28;20454;-72
2023/01/07 12:56:51;;;;;;;4.53;3.90;;;15.40;99.90;;;;;;4988329;28;20438;-72
2023/01/07 12:59:25;;;;;;;3.70;3.40;;;15.30;99.90;;;;;;4988792;28;20440;-72
2023/01/07 13:01:58;;;;;;;3.90;3.50;;;15.30;99.90;;;;;;4988683;28;20561;-72
2023/01/07 13:04:41;;;;;;;3.90;3.50;;;15.30;99.90;;;;;;4989311;28;20470;-72
2023/01/07 13:07:14;;;;;;;4.03;3.63;;;15.50;99.90;;;;;;4988437;28;20479;-71
2023/01/07 13:09:48;;;;;;;3.70;3.30;;;15.50;99.90;;;;;;4988883;28;20424;-72
2023/01/07 13:15:16;;;;;;;3.97;3.33;;;15.30;99.90;;;;;;4988465;28;20567;-72
2023/01/07 13:17:43;;;;;;;3.13;2.83;;;15.40;99.90;;;;;;4987977;28;20440;-72
2023/01/07 13:20:12;;;;;;;4.03;3.17;;;15.40;99.90;;;;;;4987406;28;20950;-72
2023/01/07 13:22:44;;;;;;;4.07;3.10;;;15.40;99.90;;;;;;4988503;28;20460;-72
2023/01/07 13:25:23;;;;;;;4.13;3.30;;;15.30;99.90;;;;;;4988326;28;20440;-72
2023/01/07 13:28:29;;;;;;;4.83;3.00;;;15.30;99.90;;;;;;4987335;28;20486;-72
2023/01/07 13:31:24;;;;;;;7.30;5.30;;;15.20;99.90;;;;;;4927445;29;20485;-72
2023/01/07 13:34:00;;;;;;;5.70;4.30;;;15.20;99.90;;;;;;4927508;29;20469;-72
2023/01/07 13:36:34;;;;;;;6.20;3.97;;;15.00;99.90;;;;;;4971239;28;20478;-72
2023/01/07 13:39:18;;;;;;;4.83;4.03;;;14.80;99.90;;;;;;4987905;28;20466;-71
2023/01/07 13:42:01;;;;;;;6.83;4.43;;;14.70;99.90;;;;;;4988351;28;20475;-71
2023/01/07 13:44:54;;;;;;;3.40;3.10;;;14.70;99.90;;;;;;4988157;28;20450;-72
2023/01/07 13:47:25;;;;;;;4.40;3.10;;;14.70;99.90;;;;;;4987368;28;20501;-72
2023/01/07 13:49:57;;;;;;;3.20;2.83;;;14.70;99.90;;;;;;4987949;28;20460;-72
2023/01/07 13:52:28;;;;;;;3.87;3.13;;;14.60;99.90;;;;;;4987700;28;20479;-72
2023/01/07 13:54:58;;;;;;;3.67;3.00;;;14.50;99.90;;;;;;4987919;28;21154;-72
2023/01/07 13:57:44;;;;;;;3.67;3.00;;;14.40;99.90;;;;;;4987277;28;20550;-72
2023/01/07 14:00:44;;;;;;;4.03;3.07;;;14.30;99.90;;;;;;4987722;28;20450;-72
2023/01/07 14:03:41;;;;;;;3.80;2.83;;;14.20;99.90;;;;;;4987840;28;20459;-72
2023/01/07 14:06:41;;;;;;;4.00;3.60;;;14.00;99.90;;;;;;4987341;28;20449;-72
2023/01/07 14:09:39;;;;;;;3.53;3.07;;;14.00;99.90;;;;;;4987233;28;20506;-72
2023/01/07 14:12:36;;;;;;;3.83;2.90;;;14.00;99.90;;;;;;4987042;28;20478;-72
2023/01/07 14:15:38;;;;;;;3.40;2.73;;;14.00;99.90;;;;;;4987617;28;20774;-72
2023/01/07 14:18:27;;;;;;;6.10;3.10;;;14.00;99.90;;;;;;4963984;28;20462;-72
2023/01/07 14:21:16;;;;;;;3.40;3.10;;;13.90;99.90;;;;;;4987389;28;20475;-72
2023/01/07 14:23:55;;;;;;;6.10;3.07;;;13.80;99.90;;;;;;4987193;28;20443;-72
2023/01/07 14:26:30;;;;;;;3.60;2.97;;;13.70;99.90;;;;;;4986861;28;20498;-72
2023/01/07 14:29:29;;;;;;;5.60;3.27;;;13.60;99.90;;;;;;4986859;28;20455;-72
2023/01/07 14:32:31;;;;;;;3.17;2.80;;;13.50;99.90;;;;;;4986770;28;20506;-72
2023/01/07 14:35:01;;;;;;;6.17;3.67;;;13.40;99.90;;;;;;4982209;28;20477;-72
2023/01/07 14:37:35;;;;;;;3.80;3.00;;;13.40;99.90;;;;;;4986334;28;20710;-72
2023/01/07 14:40:58;;;;;;;4.60;3.20;;;13.30;99.90;;;;;;4987210;28;20439;-72
2023/01/07 14:43:48;;;;;;;4.10;3.10;;;13.20;99.90;;;;;;4986634;28;21089;-72
2023/01/07 14:46:51;;;;;;;3.47;3.00;;;13.10;99.90;;;;;;4986145;28;20460;-71
2023/01/07 14:49:48;;;;;;;3.47;3.17;;;12.90;99.90;;;;;;4967980;28;20463;-71
2023/01/07 14:52:31;;;;;;;4.20;3.60;;;12.90;99.90;;;;;;4986598;28;21013;-72
2023/01/07 14:55:27;;;;;;;3.40;2.77;;;12.90;99.90;;;;;;4986488;28;20451;-72
2023/01/07 14:58:06;;;;;;;4.27;2.80;;;12.90;99.90;;;;;;4985856;28;20440;-72
2023/01/07 15:01:11;;;;;;;2.67;2.40;;;12.90;99.90;;;;;;4986089;28;21025;-71
2023/01/07 15:03:49;;;;;;;3.40;2.80;;;12.80;99.90;;;;;;4981299;28;20471;-71
2023/01/07 15:06:34;;;;;;;4.53;2.40;;;12.80;99.90;;;;;;4986216;28;20459;-71
2023/01/07 15:17:32;;;;;;;2.63;2.40;;;12.60;99.90;;;;;;4985581;28;20463;-71
2023/01/07 15:20:02;;;;;;;4.27;2.70;;;12.50;99.90;;;;;;4985993;28;21148;-72
2023/01/07 15:22:56;;;;;;;3.97;2.90;;;12.50;99.90;;;;;;4986480;28;20479;-72
2023/01/07 15:25:34;;;;;;;3.40;2.77;;;12.50;99.90;;;;;;4985751;28;20482;-71
2023/01/07 15:28:08;;;;;;;4.20;3.60;;;12.40;99.90;;;;;;4985038;28;20496;-71
2023/01/07 15:30:44;;;;;;;5.20;3.20;;;12.40;99.90;;;;;;4985904;28;20849;-71
2023/01/07 15:33:38;;;;;;;3.40;2.80;;;12.30;99.90;;;;;;4986102;28;20455;-71
2023/01/07 15:36:09;;;;;;;3.80;3.00;;;12.20;99.90;;;;;;4985406;28;20451;-71
2023/01/07 15:38:41;;;;;;;3.57;3.20;;;12.20;99.90;;;;;;4985673;28;20450;-71
2023/01/07 15:41:24;;;;;;;4.90;3.50;;;12.10;99.90;;;;;;4985693;28;21007;-71
2023/01/07 15:43:53;;;;;;;4.20;3.40;;;12.10;99.90;;;;;;4985075;28;20698;-71
2023/01/07 15:46:20;;;;;;;4.87;3.57;;;12.00;99.90;;;;;;4985411;28;20222;-71
2023/01/07 15:49:14;;;;;;;3.07;2.77;;;12.00;99.90;;;;;;4985979;28;20569;-71
2023/01/07 15:51:43;;;;;;;4.47;3.60;;;12.00;99.90;;;;;;4985729;28;20502;-71
2023/01/07 15:54:26;;;;;;;4.10;3.20;;;11.90;99.90;;;;;;4985779;28;20466;-72
2023/01/07 15:56:56;;;;;;;4.33;3.40;;;11.80;99.90;;;;;;4985293;28;20456;-71
2023/01/07 15:59:27;;;;;;;4.47;3.87;;;11.70;99.90;;;;;;4986010;28;20462;-71
2023/01/07 16:01:59;;;;;;;4.67;3.23;;;11.60;99.90;;;;;;4985443;28;20491;-72
2023/01/07 16:04:29;;;;;;;5.73;3.83;;;11.60;99.90;;;;;;4985359;28;20837;-72
2023/01/07 16:06:57;;;;;;;8.10;6.13;;;11.50;99.90;;;;;;4985142;28;20459;-72
2023/01/07 16:09:24;;;;;;;7.87;6.17;;;11.40;99.90;;;;;;4985487;28;20490;-72
2023/01/07 16:11:51;;;;;;;9.47;6.87;;;11.30;99.90;;;;;;4985789;28;20498;-72
2023/01/07 16:14:20;;;;;;;8.40;5.40;;;11.20;99.90;;;;;;4985128;28;20459;-73
2023/01/07 16:16:49;;;;;;;5.20;4.57;;;11.20;99.90;;;;;;4985180;28;20455;-73
2023/01/07 16:19:17;;;;;;;7.43;5.80;;;11.10;99.90;;;;;;4985408;28;20459;-73
2023/01/07 16:21:50;;;;;;;5.30;4.80;;;11.00;99.90;;;;;;4985286;28;20482;-73
2023/01/07 16:24:18;;;;;;;5.53;4.97;;;10.90;99.90;;;;;;4985643;28;20443;-74
2023/01/07 16:26:48;;;;;;;4.73;4.23;;;10.80;99.90;;;;;;4984396;28;20466;-74
2023/01/07 16:29:18;;;;;;;4.53;3.67;;;10.80;99.90;;;;;;4985450;28;20491;-74
2023/01/07 16:31:47;;;;;;;5.43;4.23;;;10.70;99.90;;;;;;4985414;28;20485;-74
2023/01/07 16:34:56;;;;;;;6.40;4.67;;;10.70;99.90;;;;;;4985238;28;20546;-73
2023/01/07 16:37:23;;;;;;;5.73;4.33;;;10.60;99.90;;;;;;4984884;28;20458;-72
2023/01/07 16:39:52;;;;;;;5.30;4.57;;;10.50;99.90;;;;;;4985079;28;20838;-74
2023/01/07 16:42:22;;;;;;;5.90;5.07;;;10.40;99.90;;;;;;4985217;28;20475;-72
2023/01/07 16:45:20;;;;;;;6.50;4.70;;;10.30;99.90;;;;;;4985018;28;20956;-72
2023/01/07 16:48:11;;;;;;;6.50;5.37;;;10.20;99.90;;;;;;4984690;28;20479;-73
2023/01/07 16:50:42;;;;;;;9.50;6.07;;;10.20;99.90;;;;;;4985359;28;20839;-73
2023/01/07 16:53:28;;;;;;;10.00;7.07;;;10.20;99.90;;;;;;4984857;28;20463;-73
2023/01/07 16:56:09;;;;;;;11.93;7.70;;;10.10;99.90;;;;;;4986936;28;20906;-72
2023/01/07 16:58:40;;;;;;;15.00;10.00;;;10.10;99.90;;;;;;4989009;28;20435;-72
2023/01/07 17:01:08;;;;;;;21.60;12.53;;;9.90;99.90;;;;;;4988671;28;20486;-73
2023/01/07 17:03:46;;;;;;;22.40;12.60;;;9.90;99.90;;;;;;4988942;28;20459;-72
2023/01/07 17:06:15;;;;;;;21.23;14.17;;;9.90;99.90;;;;;;4988177;28;21014;-72
2023/01/07 17:08:48;;;;;;;24.60;15.90;;;9.80;99.90;;;;;;4988636;28;20505;-72
2023/01/07 17:11:21;;;;;;;32.30;16.63;;;9.80;99.90;;;;;;4989105;28;20478;-72
2023/01/07 17:13:48;;;;;;;26.60;17.67;;;9.70;99.90;;;;;;4988467;28;21038;-72
2023/01/07 17:16:24;;;;;;;31.67;19.80;;;9.70;99.90;;;;;;4987969;28;20522;-73
2023/01/07 17:18:51;;;;;;;24.77;15.73;;;9.60;99.90;;;;;;4988143;28;20447;-72
2023/01/07 17:21:39;;;;;;;13.13;8.73;;;9.60;99.90;;;;;;4988178;28;20471;-74
2023/01/07 17:24:20;;;;;;;12.57;9.90;;;9.50;99.90;;;;;;4988318;28;20436;-73
2023/01/07 17:26:48;;;;;;;15.53;11.83;;;9.50;99.90;;;;;;4987801;28;20477;-72
2023/01/07 17:29:18;;;;;;;11.57;9.03;;;9.40;99.90;;;;;;4987848;28;20506;-72
2023/01/07 17:31:45;;;;;;;11.27;7.93;;;9.40;99.90;;;;;;4988486;28;20482;-73
2023/01/07 17:34:13;;;;;;;9.97;7.63;;;9.30;99.90;;;;;;4988104;28;20774;-75
2023/01/07 17:36:41;;;;;;;12.73;8.90;;;9.20;99.90;;;;;;4987512;28;20555;-75
2023/01/07 17:39:08;;;;;;;12.20;8.50;;;9.20;99.90;;;;;;4988052;28;20452;-72
2023/01/07 17:44:21;;;;;;;14.60;11.50;;;9.20;99.90;;;;;;4987726;28;20424;-74
2023/01/07 17:46:48;;;;;;;19.00;14.13;;;9.10;99.90;;;;;;4987378;28;20834;-73
2023/01/07 17:49:15;;;;;;;22.10;14.73;;;9.00;99.90;;;;;;4987904;28;20500;-72
2023/01/07 17:51:45;;;;;;;16.93;11.83;;;9.00;99.90;;;;;;4987587;28;20913;-72
2023/01/07 17:54:19;;;;;;;14.60;9.90;;;8.90;99.90;;;;;;4987822;28;20796;-72
2023/01/07 17:56:46;;;;;;;9.80;7.97;;;8.80;99.90;;;;;;4987123;28;20892;-72
2023/01/07 17:59:15;;;;;;;9.73;7.20;;;8.70;99.90;;;;;;4987867;28;20462;-72
2023/01/07 18:01:42;;;;;;;8.87;7.20;;;8.70;99.90;;;;;;4987055;28;20498;-72
2023/01/07 18:04:09;;;;;;;9.30;7.43;;;8.70;99.90;;;;;;4987633;28;20546;-74
2023/01/07 18:06:36;;;;;;;8.40;6.97;;;8.60;99.90;;;;;;4986447;28;20966;-72
2023/01/07 18:09:07;;;;;;;10.13;7.30;;;8.60;99.90;;;;;;4987622;28;20509;-73
2023/01/07 18:14:23;;;;;;;8.77;7.10;;;8.50;99.90;;;;;;4987477;28;20479;-72
2023/01/07 18:16:51;;;;;;;11.17;7.87;;;8.50;99.90;;;;;;4986904;28;20550;-72
2023/01/07 18:19:18;;;;;;;15.13;8.80;;;8.50;99.90;;;;;;4987010;28;20815;-73
2023/01/07 18:21:45;;;;;;;9.30;7.10;;;8.50;99.90;;;;;;4987361;28;20475;-72
2023/01/07 18:24:16;;;;;;;8.57;6.60;;;8.40;99.90;;;;;;4987591;28;20491;-73
2023/01/07 18:26:43;;;;;;;8.10;6.20;;;8.40;99.90;;;;;;4986808;28;20447;-73
2023/01/07 18:29:10;;;;;;;8.80;6.57;;;8.40;99.90;;;;;;4987215;28;21015;-71
2023/01/07 18:31:40;;;;;;;8.73;6.93;;;8.40;99.90;;;;;;4987012;28;20471;-72
2023/01/07 18:34:07;;;;;;;10.10;7.40;;;8.40;99.90;;;;;;4987133;28;20451;-72
2023/01/07 18:36:33;;;;;;;15.40;8.80;;;8.30;99.90;;;;;;4986192;28;20948;-72
2023/01/07 18:39:00;;;;;;;18.00;10.33;;;8.30;99.90;;;;;;4986944;28;20451;-75